Friday, December 14, 2018, 6:55 PM EST
Back to Local

KSFZ, Pawtucket, North Central State Airport

Location: Smithfield, RI, United States Lat: 41.917
Local Time: 6:55 PM EST (23:55 GMT) Lon: -71.5
Time Zone: US/Eastern Elev: 439 ft

Show me the last for .
Show Decoded

2018-12-14 18:35 METAR KSFZ 142335Z AUTO 00000KT 10SM BKN005 OVC010 05/04 A3034 RMK AO2 =
2018-12-14 17:56 METAR KSFZ 142256Z AUTO VRB03KT 10SM BKN007 OVC012 05/04 A3037 RMK AO2 SLP233
                 T00500039 =
2018-12-14 17:39 METAR KSFZ 142239Z AUTO 00000KT 9SM FEW007 BKN012 OVC024 05/04 A3037 RMK AO2 =
2018-12-14 16:56 METAR KSFZ 142156Z AUTO 00000KT 10SM OVC017 05/03 A3038 RMK AO2 SLP237 T00500033
                 =
2018-12-14 16:37 METAR KSFZ 142137Z AUTO VRB03KT 10SM BKN023 05/03 A3038 RMK AO2 =
2018-12-14 15:56 METAR KSFZ 142056Z AUTO 18003KT 10SM OVC055 06/03 A3039 RMK AO2 SLP239 T00560028
                 55008 =
2018-12-14 14:56 METAR KSFZ 141956Z AUTO 00000KT 10SM BKN055 06/02 A3038 RMK AO2 SLP237 T00610022
                 =
2018-12-14 13:56 METAR KSFZ 141856Z AUTO 14008KT 10SM BKN060 07/02 A3038 RMK AO2 SLP237 T00670017
                 =
2018-12-14 12:56 METAR KSFZ 141756Z AUTO VRB05KT 10SM BKN060 07/01 A3041 RMK AO2 SLP247 T00670011
                 10078 21061 58032 =
2018-12-14 11:56 METAR KSFZ 141656Z AUTO VRB03KT 10SM CLR 07/00 A3044 RMK AO2 PRESFR SLP257
                 T00670000 =
2018-12-14 10:56 METAR KSFZ 141556Z AUTO VRB06KT 10SM CLR 05/M01 A3049 RMK AO2 SLP275 T00501006 =
2018-12-14 09:56 METAR KSFZ 141456Z AUTO 15005KT 10SM CLR 04/M01 A3051 RMK AO2 SLP280 T00391006
                 50002 =
2018-12-14 08:56 METAR KSFZ 141356Z AUTO 25003KT 10SM CLR 01/M02 A3053 RMK AO2 SLP286 T00111022
                 FZRANO =
2018-12-14 07:56 METAR KSFZ 141256Z AUTO 00000KT 10SM CLR M03/M04 A3051 RMK AO2 SLP281 T10281039
                 FZRANO =
2018-12-14 06:56 METAR KSFZ 141156Z AUTO 00000KT 10SM CLR M06/M07 A3050 RMK AO2 SLP279 T10611072
                 11017 21061 50003 FZRANO =
2018-12-14 05:56 METAR KSFZ 141056Z AUTO 00000KT 10SM CLR M06/M07 A3050 RMK AO2 SLP280 T10561067
                 FZRANO =
2018-12-14 04:56 METAR KSFZ 140956Z AUTO 00000KT 10SM CLR M04/M06 A3051 RMK AO2 SLP282 T10391056
                 FZRANO =
2018-12-14 02:56 METAR KSFZ 140756Z AUTO 00000KT 10SM OVC048 M02/M06 A3053 RMK AO2 SLP287
                 T10221056 FZRANO =
2018-12-14 01:56 METAR KSFZ 140656Z AUTO 04004KT 10SM OVC050 M02/M06 A3054 RMK AO2 SLP291
                 T10221056 FZRANO =
2018-12-14 00:56 METAR KSFZ 140556Z AUTO 05003KT 10SM OVC050 M02/M05 A3055 RMK AO2 SLP295
                 T10221050 11006 21044 53006 FZRANO =
2018-12-13 23:56 METAR KSFZ 140456Z AUTO 00000KT 10SM OVC055 M03/M06 A3054 RMK AO2 SLP291
                 T10331061 400111083 FZRANO =
2018-12-13 22:56 METAR KSFZ 140356Z AUTO 00000KT 10SM CLR M03/M06 A3054 RMK AO2 SLP291 T10331061
                 FZRANO =
2018-12-13 21:56 METAR KSFZ 140256Z AUTO 10003KT 10SM OVC065 M02/M06 A3053 RMK AO2 SLP288
                 T10171056 50001 FZRANO =
2018-12-13 20:56 METAR KSFZ 140156Z AUTO 09004KT 10SM OVC055 M01/M06 A3054 RMK AO2 SLP291
                 T10111061 FZRANO =
2018-12-13 19:56 METAR KSFZ 140056Z AUTO 13004KT 10SM OVC070 M01/M06 A3053 RMK AO2 SLP289
                 T10111061 FZRANO =
2018-12-13 18:56 METAR KSFZ 132356Z AUTO 12005KT 10SM OVC070 M01/M07 A3053 RMK AO2 SLP287
                 T10061067 10011 21017 51006 FZRANO =

Support USWX by starting your Amazon purchase here.